X  Close Metar Aviation Weather Data     LIPX Verona-Villafranca Valerio Catullo Airport
Temperature
19°C Temperature
15°C Dewpoint
78% Humidity



Wind
10 KM/H
6 MPH
3 M/S
5 KTS



10°
North
Current Conditions

Clear Clear
Pressure 1012.87 (hPa) - 29.91 (inHg)
Visibility 6 (mile) - 9.7 (km)
Airport
Airport-code LIPX

Location: Verona-Villafranca Valerio Catullo Airport
Distance: 50 (km)

Metar:
LIPX 162120Z 01005KT 340V150 CAVOK 19/15 Q1013

Time: 16-06-2024 21:20 CEST